Concepcion de la Sierra, Argentina
Current Conditions -  °F | °C
As of 8:00 AM on Sunday 23 Nov 2014 (Local Time) from SARP Reporting Station
Clear Clear  
Wind Chill: 70°   Ceiling: Unl
Heat Index: 70°   Visibility: 6mi
Dew Point: 57°   Wind: 6mph
Humidity: 64%   Direction: 90°E
Pressure: 30"   Gusts: NA
Location:  27.98°S, 55.52°W
Report Text: SARP 231100Z 09005KT CAVOK 21/14 Q1016
Loading
Personal Weather Stations






























Interactive Weather Map New forecast layout! Learn more

10-Day Weather Forecast

Advertisements
Track Severe Weather on mobile